Time;durP1;ratioP1;P1;durP2;ratioP2;P2;SDS_P1;SDS_P2;PMS_P1;PMS_P2;Temp;Humidity;BMP_temperature;BMP_pressure;BME280_temperature;BME280_humidity;BME280_pressure;Samples;Min_cycle;Max_cycle;Signal;HPM_P1;HPM_P2
2022/10/29 00:00:27;;;;;;;6.10;2.10;;;9.80;99.90;;;;;;4989256;28;20375;-30
2022/10/29 00:02:53;;;;;;;3.38;2.38;;;9.70;99.90;;;;;;4986619;28;20044;-32
2022/10/29 00:05:19;;;;;;;6.00;2.25;;;9.70;99.90;;;;;;4989224;28;20046;-30
2022/10/29 00:07:53;;;;;;;2.80;2.35;;;9.60;99.90;;;;;;4983732;28;20092;-31
2022/10/29 00:10:19;;;;;;;2.92;2.58;;;9.70;99.90;;;;;;4989874;28;20026;-30
2022/10/29 00:12:45;;;;;;;4.68;2.78;;;9.80;99.90;;;;;;4986868;28;20034;-35
2022/10/29 00:15:14;;;;;;;4.68;3.00;;;10.00;99.90;;;;;;4989267;28;20527;-30
2022/10/29 00:17:40;;;;;;;6.07;2.75;;;10.10;99.90;;;;;;4999692;28;20553;-30
2022/10/29 00:20:07;;;;;;;6.03;2.38;;;10.00;99.90;;;;;;4985903;28;20023;-31
2022/10/29 00:22:32;;;;;;;3.72;2.17;;;9.90;99.90;;;;;;4985709;28;20503;-31
2022/10/29 00:25:07;;;;;;;4.28;2.10;;;9.80;99.90;;;;;;4989705;28;20026;-30
2022/10/29 00:27:33;;;;;;;3.47;2.10;;;9.90;99.90;;;;;;4983367;28;20631;-30
2022/10/29 00:30:01;;;;;;;3.42;2.22;;;9.80;99.90;;;;;;4987257;28;20491;-30
2022/10/29 00:32:27;;;;;;;3.13;2.30;;;9.90;99.90;;;;;;4986113;28;20039;-31
2022/10/29 00:34:52;;;;;;;4.15;1.90;;;10.00;99.90;;;;;;5002942;28;20111;-31
2022/10/29 00:37:27;;;;;;;3.75;3.22;;;10.00;99.90;;;;;;4990607;28;20037;-32
2022/10/29 00:39:52;;;;;;;10.80;2.70;;;10.10;99.90;;;;;;5001958;28;20861;-31
2022/10/29 00:42:18;;;;;;;4.13;2.03;;;10.20;99.90;;;;;;4990545;28;20034;-30
2022/10/29 00:44:44;;;;;;;5.43;2.53;;;10.20;99.90;;;;;;4989316;28;20033;-30
2022/10/29 00:47:24;;;;;;;5.63;2.80;;;10.30;99.90;;;;;;4987693;28;20408;-35
2022/10/29 00:49:55;;;;;;;5.00;2.22;;;10.40;99.90;;;;;;5002879;28;20022;-34
2022/10/29 00:52:23;;;;;;;4.80;2.03;;;10.30;99.90;;;;;;4984823;28;20030;-30
2022/10/29 00:54:50;;;;;;;;;;;10.40;99.90;;;;;;4989145;28;20032;-30
2022/10/29 00:57:25;;;;;;;4.18;2.10;;;10.40;99.90;;;;;;4987957;28;20329;-31
2022/10/29 00:59:51;;;;;;;3.70;2.20;;;10.30;99.90;;;;;;4986429;28;20031;-31
2022/10/29 01:02:17;;;;;;;4.78;2.42;;;10.40;99.90;;;;;;4988657;28;20049;-31
2022/10/29 01:04:44;;;;;;;4.20;2.35;;;10.40;99.90;;;;;;4989359;28;20042;-32
2022/10/29 01:07:16;;;;;;;7.95;2.72;;;10.40;99.90;;;;;;4986783;28;20034;-31
2022/10/29 01:09:42;;;;;;;3.83;1.85;;;10.30;99.90;;;;;;4988953;28;20031;-33
2022/10/29 01:12:51;;;;;;;2.75;2.03;;;10.20;99.90;;;;;;5002933;28;20455;-32
2022/10/29 01:15:57;;;;;;;3.03;2.45;;;9.90;99.90;;;;;;5002683;28;20490;-30
2022/10/29 01:18:46;;;;;;;6.38;2.92;;;9.90;99.90;;;;;;4984293;28;20354;-33
2022/10/29 01:21:41;;;;;;;5.38;2.25;;;9.80;99.90;;;;;;4988253;28;20419;-31
2022/10/29 01:24:33;;;;;;;2.92;2.30;;;9.90;99.90;;;;;;4986138;28;20034;-30
2022/10/29 01:26:59;;;;;;;4.32;2.38;;;10.10;99.90;;;;;;4987324;28;20025;-30
2022/10/29 01:29:46;;;;;;;2.97;2.28;;;10.20;99.90;;;;;;4986884;28;20026;-33
2022/10/29 01:32:25;;;;;;;7.37;2.50;;;10.20;99.90;;;;;;5001661;28;20030;-30
2022/10/29 01:35:09;;;;;;;3.65;2.30;;;10.20;99.90;;;;;;4986743;28;20025;-33
2022/10/29 01:38:01;;;;;;;3.05;2.58;;;10.30;99.90;;;;;;5001812;28;20034;-30
2022/10/29 01:40:33;;;;;;;4.28;2.10;;;10.30;99.90;;;;;;4976019;28;20048;-31
2022/10/29 01:43:13;;;;;;;3.50;2.10;;;10.40;99.90;;;;;;4990560;28;20105;-30
2022/10/29 01:45:54;;;;;;;2.92;2.22;;;10.30;99.90;;;;;;4988216;28;20464;-34
2022/10/29 01:48:44;;;;;;;7.28;2.90;;;10.20;99.90;;;;;;4989301;28;20038;-30
2022/10/29 01:51:26;;;;;;;2.47;2.20;;;10.30;99.90;;;;;;4984923;28;20038;-30
2022/10/29 01:53:52;;;;;;;2.10;1.95;;;10.40;99.90;;;;;;4981856;28;20036;-30
2022/10/29 01:56:18;;;;;;;3.67;2.25;;;10.40;99.90;;;;;;4989167;28;20558;-30
2022/10/29 01:58:48;;;;;;;4.47;2.20;;;10.40;99.90;;;;;;4983499;28;20031;-35
2022/10/29 02:01:31;;;;;;;5.15;2.38;;;10.30;99.90;;;;;;5000926;28;20107;-31
2022/10/29 02:04:09;;;;;;;4.97;2.40;;;10.30;99.90;;;;;;5000001;28;20129;-33
2022/10/29 02:06:49;;;;;;;4.47;2.58;;;10.20;99.90;;;;;;5001763;28;20415;-32
2022/10/29 02:09:26;;;;;;;4.05;2.58;;;10.20;99.90;;;;;;4989770;28;20394;-33
2022/10/29 02:11:57;;;;;;;2.63;2.22;;;10.30;99.90;;;;;;4991014;28;20054;-31
2022/10/29 02:14:32;;;;;;;3.63;2.25;;;10.30;99.90;;;;;;4984760;28;20034;-31
2022/10/29 02:16:59;;;;;;;2.03;1.88;;;10.30;99.90;;;;;;5001572;28;20064;-30
2022/10/29 02:19:35;;;;;;;4.07;2.20;;;10.00;99.90;;;;;;4985994;28;20050;-31
2022/10/29 02:22:00;;;;;;;3.95;2.58;;;9.80;99.90;;;;;;4988314;28;20037;-30
2022/10/29 02:24:26;;;;;;;2.75;2.15;;;9.70;99.90;;;;;;4987154;28;20038;-30
2022/10/29 02:26:52;;;;;;;4.88;2.30;;;9.70;99.90;;;;;;4985041;28;20427;-32
2022/10/29 02:29:18;;;;;;;4.30;2.70;;;9.70;99.90;;;;;;4988505;28;20042;-32
2022/10/29 02:31:44;;;;;;;2.55;2.35;;;9.70;99.90;;;;;;4987038;28;20061;-32
2022/10/29 02:34:10;;;;;;;5.25;2.65;;;9.80;99.90;;;;;;4987551;28;20073;-33
2022/10/29 02:36:36;;;;;;;3.92;2.60;;;9.80;99.90;;;;;;5005714;28;20468;-30
2022/10/29 02:39:02;;;;;;;4.60;2.50;;;9.80;99.90;;;;;;4987195;28;20171;-32
2022/10/29 02:41:28;;;;;;;3.17;2.33;;;9.80;99.90;;;;;;4986508;28;20104;-30
2022/10/29 02:43:54;;;;;;;4.70;2.80;;;9.60;99.90;;;;;;4990071;28;20045;-32
2022/10/29 02:46:24;;;;;;;3.60;2.30;;;9.70;99.90;;;;;;4985119;28;20448;-30
2022/10/29 02:48:50;;;;;;;2.50;2.05;;;9.80;99.90;;;;;;4988344;28;20057;-32
2022/10/29 02:51:17;;;;;;;4.35;2.30;;;9.70;99.90;;;;;;4998034;28;20058;-32
2022/10/29 02:53:43;;;;;;;3.10;2.35;;;9.60;99.90;;;;;;4986794;28;20030;-32
2022/10/29 02:56:09;;;;;;;4.53;2.60;;;9.50;99.90;;;;;;4990965;28;20069;-33
2022/10/29 02:58:35;;;;;;;3.10;2.30;;;9.50;99.90;;;;;;4999490;28;20117;-32
2022/10/29 03:01:01;;;;;;;3.42;2.35;;;9.60;99.90;;;;;;4988832;28;20035;-30
2022/10/29 03:03:27;;;;;;;7.30;2.47;;;9.60;99.90;;;;;;4989524;28;20058;-30
2022/10/29 03:05:52;;;;;;;3.95;2.67;;;9.70;99.90;;;;;;5003903;28;20030;-31
2022/10/29 03:08:18;;;;;;;4.57;2.47;;;9.80;99.90;;;;;;5004632;28;20099;-30
2022/10/29 03:10:45;;;;;;;3.78;2.30;;;9.80;99.90;;;;;;4989777;28;20551;-31
2022/10/29 03:13:10;;;;;;;2.33;2.10;;;9.80;99.90;;;;;;4992825;28;20037;-30
2022/10/29 03:15:36;;;;;;;4.20;2.50;;;9.80;99.90;;;;;;4992943;28;20112;-31
2022/10/29 03:18:03;;;;;;;2.65;2.08;;;9.70;99.90;;;;;;4987077;28;20121;-30
2022/10/29 03:20:30;;;;;;;2.90;2.28;;;9.80;99.90;;;;;;4996353;28;20035;-33
2022/10/29 03:22:55;;;;;;;4.38;3.00;;;9.80;99.90;;;;;;4988018;28;20022;-32
2022/10/29 03:25:21;;;;;;;4.30;2.33;;;9.80;99.90;;;;;;4990520;28;20046;-31
2022/10/29 03:27:47;;;;;;;4.10;2.85;;;9.80;99.90;;;;;;4992035;28;20515;-31
2022/10/29 03:30:15;;;;;;;3.90;2.40;;;9.80;99.90;;;;;;4987448;28;20121;-36
2022/10/29 03:32:44;;;;;;;6.57;2.70;;;9.80;99.90;;;;;;4985151;28;20062;-31
2022/10/29 03:35:12;;;;;;;3.35;2.58;;;9.80;99.90;;;;;;4999604;28;20499;-30
2022/10/29 03:37:38;;;;;;;6.45;2.30;;;9.70;99.90;;;;;;4990029;28;20057;-31
2022/10/29 03:40:05;;;;;;;4.65;2.22;;;9.60;99.90;;;;;;4993045;28;20031;-30
2022/10/29 03:42:31;;;;;;;6.95;2.22;;;9.50;99.90;;;;;;4995287;28;20035;-33
2022/10/29 03:44:58;;;;;;;3.78;2.13;;;9.50;99.90;;;;;;4987840;28;20049;-31
2022/10/29 03:47:24;;;;;;;5.70;2.45;;;9.40;99.90;;;;;;4988935;28;20502;-34
2022/10/29 03:49:49;;;;;;;4.70;2.22;;;9.40;99.90;;;;;;4987271;28;20026;-30
2022/10/29 03:52:15;;;;;;;6.75;2.33;;;9.30;99.90;;;;;;4987379;28;20034;-33
2022/10/29 03:54:40;;;;;;;6.65;2.33;;;9.40;99.90;;;;;;4991074;28;20287;-31
2022/10/29 03:57:06;;;;;;;4.07;2.40;;;9.50;99.90;;;;;;4989069;28;20038;-32
2022/10/29 03:59:35;;;;;;;4.50;2.40;;;9.60;99.90;;;;;;4988576;28;20105;-32
2022/10/29 04:02:00;;;;;;;3.40;2.05;;;9.60;99.90;;;;;;4991319;28;20037;-31
2022/10/29 04:04:26;;;;;;;4.05;2.20;;;9.70;99.90;;;;;;4987385;28;20050;-31
2022/10/29 04:06:55;;;;;;;4.15;2.50;;;9.70;99.90;;;;;;5003526;28;20038;-33
2022/10/29 04:09:21;;;;;;;3.17;2.30;;;9.70;99.90;;;;;;5006520;28;20034;-30
2022/10/29 04:11:47;;;;;;;3.50;2.42;;;9.80;99.90;;;;;;4993006;28;20038;-33
2022/10/29 04:14:15;;;;;;;3.97;2.75;;;9.90;99.90;;;;;;4989566;28;20030;-31
2022/10/29 04:16:41;;;;;;;3.30;2.10;;;9.80;99.90;;;;;;4982283;28;20034;-30
2022/10/29 04:19:09;;;;;;;3.70;2.63;;;9.90;99.90;;;;;;4988901;28;20492;-31
2022/10/29 04:21:35;;;;;;;5.90;2.20;;;9.80;99.90;;;;;;5003131;28;20930;-33
2022/10/29 04:24:00;;;;;;;3.20;2.20;;;9.90;99.90;;;;;;4989605;28;20113;-31
2022/10/29 04:26:26;;;;;;;2.67;2.28;;;9.90;99.90;;;;;;4989426;28;20046;-33
2022/10/29 04:28:57;;;;;;;4.53;2.50;;;9.90;99.90;;;;;;4995526;28;20031;-30
2022/10/29 04:31:23;;;;;;;3.05;2.28;;;9.90;99.90;;;;;;4990598;28;20034;-30
2022/10/29 04:33:51;;;;;;;4.68;2.40;;;9.90;99.90;;;;;;4989231;28;20387;-32
2022/10/29 04:36:17;;;;;;;8.63;2.95;;;9.80;99.90;;;;;;5008941;28;20030;-33
2022/10/29 04:38:42;;;;;;;3.95;2.78;;;9.70;99.90;;;;;;4989558;28;20041;-31
2022/10/29 04:41:08;;;;;;;4.32;2.22;;;9.60;99.90;;;;;;4988525;28;20049;-30
2022/10/29 04:43:34;;;;;;;4.18;2.30;;;9.50;99.90;;;;;;4987781;28;20040;-30
2022/10/29 04:46:00;;;;;;;2.83;2.38;;;9.50;99.90;;;;;;4992497;28;20034;-31
2022/10/29 04:48:26;;;;;;;2.90;2.30;;;9.60;99.90;;;;;;4991588;28;20034;-30
2022/10/29 04:50:52;;;;;;;4.38;2.30;;;9.50;99.90;;;;;;4988611;28;20030;-33
2022/10/29 04:53:18;;;;;;;4.28;2.78;;;9.50;99.90;;;;;;4987778;28;20033;-36
2022/10/29 04:55:44;;;;;;;3.63;2.40;;;9.60;99.90;;;;;;5003210;28;20507;-31
2022/10/29 04:58:18;;;;;;;4.00;3.63;;;9.60;99.90;;;;;;4987875;28;20467;-30
2022/10/29 05:00:45;;;;;;;3.30;2.17;;;9.60;99.90;;;;;;4989537;28;20019;-32
2022/10/29 05:03:11;;;;;;;2.42;2.20;;;9.60;99.90;;;;;;4986412;28;20093;-31
2022/10/29 05:05:38;;;;;;;4.88;2.60;;;9.60;99.90;;;;;;4986199;28;20026;-31
2022/10/29 05:08:05;;;;;;;5.85;2.80;;;9.60;99.90;;;;;;4993441;28;20876;-30
2022/10/29 05:10:37;;;;;;;5.00;2.42;;;9.60;99.90;;;;;;5004125;28;20037;-30
2022/10/29 05:13:09;;;;;;;2.50;2.30;;;9.60;99.90;;;;;;4985159;28;20128;-30
2022/10/29 05:15:35;;;;;;;3.40;2.28;;;9.60;99.90;;;;;;4988198;28;20487;-32
2022/10/29 05:18:02;;;;;;;4.13;2.58;;;9.50;99.90;;;;;;4984639;28;20061;-32
2022/10/29 05:20:30;;;;;;;8.38;2.55;;;9.60;99.90;;;;;;4989135;28;20022;-31
2022/10/29 05:23:00;;;;;;;;;;;9.60;99.90;;;;;;4986413;28;20542;-32
2022/10/29 05:25:26;;;;;;;4.15;2.72;;;9.60;99.90;;;;;;4989974;28;19921;-33
2022/10/29 05:27:59;;;;;;;4.10;2.22;;;9.70;99.90;;;;;;4988318;28;20035;-30
2022/10/29 05:30:25;;;;;;;4.32;2.30;;;9.60;99.90;;;;;;4988836;28;20037;-31
2022/10/29 05:32:51;;;;;;;4.45;2.42;;;9.70;99.90;;;;;;4987076;28;20022;-30
2022/10/29 05:35:16;;;;;;;5.85;2.58;;;9.80;99.90;;;;;;5001266;28;20044;-30
2022/10/29 05:37:42;;;;;;;2.47;2.28;;;9.80;99.90;;;;;;5005299;28;20030;-31
2022/10/29 05:40:09;;;;;;;4.47;2.30;;;9.90;99.90;;;;;;4987897;28;20577;-30
2022/10/29 05:42:44;;;;;;;6.70;2.70;;;9.90;99.90;;;;;;4993988;28;20044;-31
2022/10/29 05:45:10;;;;;;;2.67;2.08;;;9.90;99.90;;;;;;4992231;28;20023;-33
2022/10/29 05:47:35;;;;;;;4.15;2.60;;;9.90;99.90;;;;;;4990766;28;20031;-30
2022/10/29 05:50:01;;;;;;;6.72;2.67;;;10.00;99.90;;;;;;4988768;28;20124;-30
2022/10/29 05:52:27;;;;;;;3.08;2.63;;;10.00;99.90;;;;;;4986117;28;20030;-31
2022/10/29 05:54:53;;;;;;;6.93;2.33;;;10.00;99.90;;;;;;4996187;28;20034;-34
2022/10/29 05:57:19;;;;;;;5.38;2.72;;;10.00;99.90;;;;;;4992638;28;20026;-32
2022/10/29 05:59:45;;;;;;;4.10;2.35;;;10.00;99.90;;;;;;4987149;28;20018;-30
2022/10/29 06:02:11;;;;;;;4.03;2.55;;;10.00;99.90;;;;;;5003944;28;20239;-30
2022/10/29 06:04:37;;;;;;;4.75;2.63;;;10.00;99.90;;;;;;4990207;28;20521;-30
2022/10/29 06:07:03;;;;;;;2.65;2.22;;;10.10;99.90;;;;;;4993826;28;20092;-31
2022/10/29 06:09:29;;;;;;;5.43;2.22;;;10.10;99.90;;;;;;4994585;28;20143;-30
2022/10/29 06:11:55;;;;;;;3.78;2.60;;;10.00;99.90;;;;;;4997338;28;20062;-31
2022/10/29 06:14:21;;;;;;;6.43;2.50;;;10.00;99.90;;;;;;4997288;28;20029;-30
2022/10/29 06:16:47;;;;;;;4.90;2.40;;;10.10;99.90;;;;;;4989932;28;20062;-31
2022/10/29 06:19:12;;;;;;;2.78;2.58;;;10.10;99.90;;;;;;5005313;28;20026;-33
2022/10/29 06:21:38;;;;;;;6.93;2.80;;;10.10;99.90;;;;;;4990971;28;20037;-31
2022/10/29 06:24:04;;;;;;;5.22;2.75;;;10.10;99.90;;;;;;4988499;28;20023;-31
2022/10/29 06:26:30;;;;;;;3.90;2.60;;;10.10;99.90;;;;;;5005307;28;20177;-33
2022/10/29 06:28:56;;;;;;;7.35;3.08;;;10.20;99.90;;;;;;4991764;28;20117;-30
2022/10/29 06:31:21;;;;;;;3.70;2.65;;;10.20;99.90;;;;;;5005211;28;20042;-31
2022/10/29 06:33:47;;;;;;;4.97;2.60;;;10.10;99.90;;;;;;4989506;28;20106;-30
2022/10/29 06:36:13;;;;;;;6.97;2.63;;;10.10;99.90;;;;;;4991044;28;20468;-31
2022/10/29 06:38:41;;;;;;;6.72;2.40;;;10.00;99.90;;;;;;4992012;28;20038;-31
2022/10/29 06:41:08;;;;;;;6.20;2.92;;;10.10;99.90;;;;;;5004824;28;20487;-31
2022/10/29 06:43:34;;;;;;;4.47;2.63;;;10.10;99.90;;;;;;4988895;28;20132;-31
2022/10/29 06:46:00;;;;;;;6.50;2.78;;;10.10;99.90;;;;;;4989402;28;20544;-31
2022/10/29 06:48:26;;;;;;;3.75;2.45;;;10.10;99.90;;;;;;4998999;28;20045;-30
2022/10/29 06:50:52;;;;;;;3.42;2.70;;;10.10;99.90;;;;;;4986697;28;20030;-30
2022/10/29 06:53:18;;;;;;;5.68;2.88;;;10.20;99.90;;;;;;4988294;28;20038;-30
2022/10/29 06:55:44;;;;;;;5.30;2.45;;;10.20;99.90;;;;;;4989276;28;20034;-31
2022/10/29 06:58:15;;;;;;;3.17;2.70;;;10.30;99.90;;;;;;4993805;28;20023;-30
2022/10/29 07:00:41;;;;;;;5.82;3.05;;;10.30;99.90;;;;;;4991248;28;20553;-29
2022/10/29 07:03:19;;;;;;;4.57;3.35;;;10.30;99.90;;;;;;4988526;28;20031;-30
2022/10/29 07:05:45;;;;;;;3.50;3.20;;;10.40;99.90;;;;;;4991287;28;20487;-31
2022/10/29 07:08:11;;;;;;;5.80;3.08;;;10.50;99.90;;;;;;4990468;28;20545;-30
2022/10/29 07:10:38;;;;;;;5.38;2.83;;;10.50;99.90;;;;;;4991229;28;20024;-30
2022/10/29 07:13:04;;;;;;;4.03;2.83;;;10.60;99.90;;;;;;4996878;28;20085;-32
2022/10/29 07:15:29;;;;;;;7.40;4.03;;;10.60;99.90;;;;;;5002764;28;20022;-31
2022/10/29 07:18:02;;;;;;;7.85;4.82;;;10.70;99.90;;;;;;5003328;28;20446;-30
2022/10/29 07:20:30;;;;;;;6.15;3.35;;;10.80;99.90;;;;;;4992360;28;20062;-30
2022/10/29 07:23:00;;;;;;;5.80;3.47;;;10.80;99.90;;;;;;4991147;28;20388;-32
2022/10/29 07:25:26;;;;;;;5.93;3.70;;;10.90;99.90;;;;;;4984715;28;20107;-31
2022/10/29 07:27:52;;;;;;;13.27;7.50;;;10.90;99.90;;;;;;5006437;28;20062;-30
2022/10/29 07:30:18;;;;;;;11.52;6.03;;;11.00;99.90;;;;;;5000663;28;20147;-32
2022/10/29 07:32:44;;;;;;;10.35;6.38;;;11.00;99.90;;;;;;4984535;28;20518;-31
2022/10/29 07:35:10;;;;;;;8.43;4.40;;;11.10;99.90;;;;;;5006711;28;20294;-30
2022/10/29 07:37:36;;;;;;;6.35;3.47;;;11.20;99.90;;;;;;4990426;28;20080;-31
2022/10/29 07:40:01;;;;;;;7.68;3.15;;;11.20;99.90;;;;;;4986051;28;20027;-34
2022/10/29 07:42:27;;;;;;;5.35;2.58;;;11.30;99.90;;;;;;5003758;28;20029;-33
2022/10/29 07:44:53;;;;;;;3.28;2.58;;;11.30;99.90;;;;;;4987926;28;20033;-31
2022/10/29 07:47:18;;;;;;;3.42;2.78;;;11.30;99.90;;;;;;4994243;28;20029;-31
2022/10/29 07:49:44;;;;;;;7.85;2.80;;;11.40;99.90;;;;;;4984272;28;20038;-30
2022/10/29 07:52:10;;;;;;;5.10;2.60;;;11.40;99.90;;;;;;4994913;28;20042;-31
2022/10/29 07:54:35;;;;;;;3.53;2.65;;;11.50;99.90;;;;;;4993048;28;20030;-35
2022/10/29 07:57:01;;;;;;;4.18;2.35;;;11.50;99.90;;;;;;4990059;28;20030;-32
2022/10/29 07:59:26;;;;;;;5.55;3.15;;;11.50;99.90;;;;;;4992903;28;20770;-30
2022/10/29 08:01:52;;;;;;;3.00;2.30;;;11.60;99.90;;;;;;4995474;28;20111;-30
2022/10/29 08:04:18;;;;;;;4.60;2.75;;;11.60;99.90;;;;;;4992584;28;20046;-30
2022/10/29 08:06:43;;;;;;;3.90;2.65;;;11.60;99.90;;;;;;5007032;28;20365;-33
2022/10/29 08:09:11;;;;;;;6.60;2.85;;;11.60;99.90;;;;;;5008007;28;20027;-30
2022/10/29 08:11:36;;;;;;;4.57;2.80;;;11.60;99.90;;;;;;4999772;28;20089;-30
2022/10/29 08:14:02;;;;;;;10.60;3.88;;;11.70;99.90;;;;;;4996602;28;20030;-30
2022/10/29 08:16:29;;;;;;;7.45;3.55;;;11.70;99.90;;;;;;4990914;28;20058;-31
2022/10/29 08:18:55;;;;;;;7.03;3.22;;;11.80;99.90;;;;;;4990169;28;20023;-29
2022/10/29 08:21:20;;;;;;;5.25;3.45;;;11.90;99.90;;;;;;4989659;28;20502;-33
2022/10/29 08:23:46;;;;;;;6.18;3.08;;;12.00;99.90;;;;;;4989596;28;20060;-31
2022/10/29 08:26:12;;;;;;;8.00;3.25;;;12.10;99.90;;;;;;4996911;28;20161;-29
2022/10/29 08:28:37;;;;;;;5.00;3.00;;;12.10;99.90;;;;;;4989333;28;20087;-35
2022/10/29 08:31:03;;;;;;;4.80;3.25;;;12.20;99.90;;;;;;5006407;28;20035;-30
2022/10/29 08:33:29;;;;;;;7.22;3.13;;;12.30;99.90;;;;;;4991289;28;20084;-30
2022/10/29 08:35:55;;;;;;;4.43;2.60;;;12.40;99.90;;;;;;4989093;28;20060;-31
2022/10/29 08:38:23;;;;;;;7.47;3.83;;;12.40;99.90;;;;;;4995058;28;20108;-31
2022/10/29 08:41:22;;;;;;;9.75;3.70;;;12.50;99.90;;;;;;4996414;28;20025;-31
2022/10/29 08:44:02;;;;;;;6.75;3.65;;;12.60;99.90;;;;;;5005511;28;20117;-32
2022/10/29 08:46:47;;;;;;;7.68;3.25;;;12.70;99.90;;;;;;4992061;28;20077;-30
2022/10/29 08:49:18;;;;;;;7.63;3.20;;;12.80;99.90;;;;;;4990261;28;20556;-32
2022/10/29 08:52:18;;;;;;;7.25;3.17;;;12.90;99.90;;;;;;5003304;28;20315;-32
2022/10/29 08:54:50;;;;;;;9.02;3.47;;;13.10;99.90;;;;;;4984609;28;20419;-32
2022/10/29 08:57:19;;;;;;;8.02;3.63;;;13.30;99.90;;;;;;4989424;28;20722;-32
2022/10/29 09:00:03;;;;;;;10.52;3.10;;;13.40;99.90;;;;;;4990586;28;20054;-32
2022/10/29 09:02:29;;;;;;;6.93;3.38;;;13.50;99.90;;;;;;4985074;28;20031;-32
2022/10/29 09:04:55;;;;;;;6.78;3.42;;;13.60;99.90;;;;;;5002152;28;20053;-31
2022/10/29 09:07:39;;;;;;;7.90;3.58;;;13.70;99.90;;;;;;4988013;28;20030;-35
2022/10/29 09:10:23;;;;;;;9.00;3.47;;;13.80;99.90;;;;;;4988888;28;20084;-36
2022/10/29 09:13:27;;;;;;;5.45;2.78;;;14.00;99.90;;;;;;4988722;28;20038;-31
2022/10/29 09:15:58;;;;;;;5.75;2.70;;;14.10;99.90;;;;;;4989529;28;20018;-30
2022/10/29 09:18:58;;;;;;;5.28;3.13;;;14.30;99.90;;;;;;5004260;28;20546;-31
2022/10/29 09:21:37;;;;;;;4.43;2.80;;;14.40;99.90;;;;;;4989134;28;20038;-30
2022/10/29 09:24:21;;;;;;;3.60;2.78;;;14.60;99.90;;;;;;5005624;28;20029;-32
2022/10/29 09:27:00;;;;;;;6.72;3.35;;;14.80;99.90;;;;;;4988681;28;20026;-29
2022/10/29 09:29:32;;;;;;;5.35;2.17;;;15.00;99.90;;;;;;4987732;28;20045;-30
2022/10/29 09:32:04;;;;;;;6.05;3.20;;;15.20;99.90;;;;;;4987813;28;20030;-30
2022/10/29 09:34:38;;;;;;;7.72;2.80;;;15.30;99.90;;;;;;4990575;28;20642;-30
2022/10/29 09:37:16;;;;;;;7.35;2.35;;;15.40;99.90;;;;;;4990868;28;20376;-32
2022/10/29 09:39:44;;;;;;;5.93;2.35;;;15.50;99.90;;;;;;4990366;28;20483;-31
2022/10/29 09:42:14;;;;;;;9.95;2.67;;;15.70;99.90;;;;;;4990737;28;20061;-31
2022/10/29 09:44:47;;;;;;;6.03;2.20;;;15.80;99.90;;;;;;4990249;28;20061;-30
2022/10/29 09:47:35;;;;;;;6.38;2.50;;;15.90;99.90;;;;;;4988358;28;20081;-30
2022/10/29 09:50:22;;;;;;;3.83;2.00;;;16.00;99.90;;;;;;4988802;28;20033;-31
2022/10/29 09:52:48;;;;;;;7.95;2.80;;;16.10;99.90;;;;;;4992112;28;20053;-31
2022/10/29 09:55:26;;;;;;;7.15;2.65;;;16.20;99.90;;;;;;4990021;28;20030;-31
2022/10/29 09:57:55;;;;;;;5.95;2.47;;;16.50;99.90;;;;;;4989981;28;20568;-31
2022/10/29 10:00:28;;;;;;;6.50;2.70;;;16.60;99.90;;;;;;4988331;28;20065;-31
2022/10/29 10:03:09;;;;;;;6.93;3.22;;;16.70;99.90;;;;;;4992315;28;20722;-31
2022/10/29 10:05:54;;;;;;;7.18;2.95;;;16.90;99.90;;;;;;4987010;28;20160;-31
2022/10/29 10:08:19;;;;;;;7.22;2.50;;;17.00;99.90;;;;;;4989564;28;20121;-31
2022/10/29 10:10:52;;;;;;;6.10;3.05;;;17.10;99.90;;;;;;5007430;28;20208;-31
2022/10/29 10:13:21;;;;;;;6.72;2.78;;;17.20;99.90;;;;;;4989496;28;20042;-31
2022/10/29 10:15:54;;;;;;;;;;;17.20;99.90;;;;;;4986956;28;20038;-31
2022/10/29 10:18:22;;;;;;;4.93;2.38;;;17.30;99.90;;;;;;4986703;28;20429;-31
2022/10/29 10:21:08;;;;;;;;;;;17.40;99.90;;;;;;4988828;28;20026;-31
2022/10/29 10:23:53;;;;;;;7.05;2.60;;;17.50;99.90;;;;;;4992450;28;20378;-32
2022/10/29 10:26:42;;;;;;;8.40;1.95;;;17.60;99.90;;;;;;4988629;28;20478;-33
2022/10/29 10:29:22;;;;;;;6.70;2.15;;;17.80;99.90;;;;;;4986412;28;20034;-35
2022/10/29 10:32:07;;;;;;;6.80;2.13;;;17.80;99.90;;;;;;4991568;28;20022;-33
2022/10/29 10:34:33;;;;;;;8.38;2.42;;;17.90;98.80;;;;;;4985293;28;20121;-35
2022/10/29 10:37:16;;;;;;;5.72;2.50;;;17.90;99.90;;;;;;4989017;28;20105;-32
2022/10/29 10:39:46;;;;;;;9.02;3.80;;;17.90;99.90;;;;;;4987530;28;20076;-31
2022/10/29 10:42:22;;;;;;;7.85;2.42;;;18.00;99.90;;;;;;4988149;28;20030;-32
2022/10/29 10:44:51;;;;;;;4.70;2.60;;;18.20;99.90;;;;;;4987316;28;20554;-31
2022/10/29 10:47:21;;;;;;;6.63;2.38;;;18.40;99.10;;;;;;4987672;28;20430;-31
2022/10/29 10:49:47;;;;;;;9.20;2.30;;;18.50;99.90;;;;;;4987697;28;20027;-31
2022/10/29 10:52:15;;;;;;;7.93;2.88;;;18.60;99.90;;;;;;4995450;28;20434;-32
2022/10/29 10:54:45;;;;;;;10.20;2.10;;;18.60;99.90;;;;;;4987473;28;20494;-30
2022/10/29 10:57:10;;;;;;;8.55;2.25;;;18.60;99.90;;;;;;4989716;28;20057;-31
2022/10/29 10:59:50;;;;;;;9.32;2.22;;;18.70;99.90;;;;;;4987772;28;20022;-31
2022/10/29 11:02:32;;;;;;;9.57;2.60;;;18.70;99.90;;;;;;4990993;28;20092;-31
2022/10/29 11:05:04;;;;;;;6.10;2.13;;;18.90;99.90;;;;;;4987818;28;20518;-30
2022/10/29 11:07:35;;;;;;;5.82;2.00;;;18.90;99.90;;;;;;5003910;28;20041;-31
2022/10/29 11:10:04;;;;;;;6.93;2.08;;;18.90;99.90;;;;;;4986398;28;20030;-32
2022/10/29 11:12:58;;;;;;;5.43;1.75;;;19.10;99.90;;;;;;4986270;28;20037;-30
2022/10/29 11:15:36;;;;;;;5.45;2.28;;;19.30;99.90;;;;;;4989914;28;20018;-31
2022/10/29 11:18:17;;;;;;;4.70;2.20;;;19.20;99.90;;;;;;4989024;28;20034;-30
2022/10/29 11:20:49;;;;;;;6.85;2.22;;;19.20;99.90;;;;;;4987741;28;20030;-32
2022/10/29 11:23:33;;;;;;;5.80;2.00;;;19.20;99.90;;;;;;4991982;28;20117;-32
2022/10/29 11:26:25;;;;;;;9.95;2.13;;;19.40;99.90;;;;;;4992975;28;20101;-30
2022/10/29 11:29:13;;;;;;;7.65;2.00;;;19.60;98.60;;;;;;4992739;28;20026;-32
2022/10/29 11:32:00;;;;;;;5.15;1.80;;;19.60;99.50;;;;;;4993284;28;20030;-30
2022/10/29 11:35:03;;;;;;;6.78;2.55;;;19.60;96.60;;;;;;4992779;28;20050;-32
2022/10/29 11:37:33;;;;;;;8.73;2.45;;;19.70;97.10;;;;;;4984711;28;20084;-34
2022/10/29 11:40:15;;;;;;;5.97;2.00;;;19.80;98.00;;;;;;4986584;28;20031;-31
2022/10/29 11:42:41;;;;;;;4.22;1.85;;;19.80;96.20;;;;;;4991569;28;20026;-31
2022/10/29 11:45:11;;;;;;;6.60;1.92;;;19.80;94.70;;;;;;4992274;28;20084;-34
2022/10/29 11:47:56;;;;;;;7.75;2.05;;;19.90;83.70;;;;;;4991303;28;20154;-33
2022/10/29 11:50:43;;;;;;;5.82;2.10;;;20.30;86.70;;;;;;4992327;28;20084;-34
2022/10/29 11:53:31;;;;;;;10.10;2.20;;;20.40;89.30;;;;;;4993185;28;20117;-32
2022/10/29 11:56:02;;;;;;;;;;;20.30;91.00;;;;;;4988680;28;20137;-32
2022/10/29 11:58:41;;;;;;;5.50;2.20;;;20.10;88.10;;;;;;4990336;28;19952;-33
2022/10/29 12:01:26;;;;;;;9.50;2.10;;;20.20;88.10;;;;;;4988946;28;20039;-32
2022/10/29 12:04:08;;;;;;;6.10;2.10;;;20.60;77.10;;;;;;4992599;28;20037;-32
2022/10/29 12:07:01;;;;;;;8.82;2.00;;;20.90;77.20;;;;;;4996081;28;20357;-33
2022/10/29 12:09:26;;;;;;;3.17;1.80;;;20.90;75.50;;;;;;4990624;28;20031;-35
2022/10/29 12:11:59;;;;;;;8.93;2.40;;;20.80;79.10;;;;;;4990642;28;20041;-31
2022/10/29 12:14:32;;;;;;;6.97;2.17;;;20.70;83.90;;;;;;4989238;28;20045;-30
2022/10/29 12:17:17;;;;;;;4.97;1.70;;;20.60;82.90;;;;;;4991514;28;20038;-33
2022/10/29 12:19:50;;;;;;;6.45;2.08;;;20.60;86.20;;;;;;4991402;28;20529;-31
2022/10/29 12:22:16;;;;;;;8.75;2.10;;;20.90;76.50;;;;;;4994730;28;20594;-32
2022/10/29 12:25:19;;;;;;;7.75;2.42;;;20.90;77.50;;;;;;4988543;28;20077;-34
2022/10/29 12:28:00;;;;;;;6.05;1.83;;;21.10;75.10;;;;;;4992636;28;20441;-30
2022/10/29 12:30:27;;;;;;;6.93;1.92;;;21.30;75.10;;;;;;4986497;28;20535;-31
2022/10/29 12:33:05;;;;;;;8.35;2.70;;;21.40;74.80;;;;;;4988130;28;20106;-32
2022/10/29 12:36:14;;;;;;;8.57;2.45;;;21.60;74.40;;;;;;4991522;28;20133;-31
2022/10/29 12:38:48;;;;;;;5.05;2.92;;;21.70;70.90;;;;;;4988966;28;20124;-31
2022/10/29 12:41:33;;;;;;;7.25;2.47;;;21.70;72.00;;;;;;4991208;28;20038;-30
2022/10/29 12:44:35;;;;;;;7.20;2.10;;;21.70;72.40;;;;;;4988392;28;20534;-30
2022/10/29 12:47:27;;;;;;;7.78;2.30;;;21.70;73.70;;;;;;4978763;28;20168;-31
2022/10/29 12:49:53;;;;;;;7.57;1.95;;;21.60;75.40;;;;;;4989505;28;20786;-30
2022/10/29 12:52:28;;;;;;;4.47;1.92;;;21.50;75.30;;;;;;4989588;28;20031;-31
2022/10/29 12:54:54;;;;;;;8.18;2.13;;;21.60;77.60;;;;;;4989364;28;20510;-32
2022/10/29 12:57:28;;;;;;;8.95;1.98;;;21.50;75.60;;;;;;4990805;28;20379;-30
2022/10/29 12:59:53;;;;;;;17.33;6.53;;;21.40;81.40;;;;;;4989198;28;20026;-30
2022/10/29 13:02:37;;;;;;;13.23;5.07;;;21.40;77.10;;;;;;4990747;28;20506;-30
2022/10/29 13:05:08;;;;;;;8.57;3.42;;;21.30;82.10;;;;;;5005456;28;20498;-30
2022/10/29 13:07:46;;;;;;;8.88;2.50;;;21.30;88.40;;;;;;4991717;28;20034;-32
2022/10/29 13:10:21;;;;;;;6.70;2.35;;;21.20;92.10;;;;;;4989816;28;20125;-31
2022/10/29 13:13:00;;;;;;;9.93;2.25;;;21.20;92.80;;;;;;4988808;28;20471;-31